.
WxDataArchive / Data Records for 2008-12-24
2008-12-23 December 2008 2008-12-25

Data Records for Wednesday, 24 December 2008

Time	Temp	Chill	HIndex	Humid	Dewpt	 Wind 	HiWind	WindDir	Rain 	Barom 
-----	----	-----	------	-----	-----	------	------	-------	-----	----- 
00:00	33.2	33.2	33.2	93	31.4	1	3	270	0.00	29.951 
00:05	33.2	33.2	33.2	93	31.4	1	4	225	0.00	29.948 
00:10	33.2	33.2	33.2	93	31.4	1	3	248	0.00	29.950 
00:15	33.2	33.2	33.2	93	31.4	1	4	248	0.00	29.950 
00:20	33.2	33.2	33.2	93	31.4	1	4	270	0.00	29.952 
00:25	33.2	33.2	33.2	93	31.4	1	4	270	0.00	29.949 
00:30	33.2	33.2	33.2	93	31.4	1	5	248	0.00	29.936 
00:35	33.2	33.2	33.2	93	31.4	1	3	270	0.00	29.936 
00:40	33.2	33.2	33.2	93	31.4	1	5	68	0.00	29.935 
00:45	33.2	33.2	33.2	93	31.4	1	2	22	0.00	29.934 
00:50	33.2	33.2	33.2	94	31.7	1	3	90	0.00	29.932 
00:55	33.2	33.2	33.2	94	31.7	1	4	270	0.00	29.931 
01:00	33.2	33.2	33.2	94	31.7	1	3	315	0.00	29.921 
01:05	33.2	33.2	33.2	94	31.7	1	3	90	0.00	29.919 
01:10	33.2	33.2	33.2	94	31.7	1	4	338	0.00	29.917 
01:15	33.4	33.4	33.4	94	31.9	1	4	292	0.00	29.915 
01:20	33.4	33.4	33.4	94	31.9	1	4	45	0.00	29.918 
01:25	33.4	33.4	33.4	94	31.9	1	2	68	0.00	29.917 
01:30	33.2	33.2	33.2	94	31.7	1	4	270	0.00	29.916 
01:35	33.2	33.2	33.2	94	31.7	1	3	180	0.00	29.916 
01:40	33.2	33.2	33.2	94	31.7	0	3	338	0.00	29.915 
01:45	33.4	33.4	33.4	94	31.9	1	4	248	0.00	29.914 
01:50	33.4	33.4	33.4	94	31.9	1	3	135	0.00	29.913 
01:55	33.4	33.4	33.4	94	31.9	0	2	135	0.00	29.914 
02:00	33.4	33.4	33.4	94	31.9	1	4	90	0.00	29.907 
02:05	33.4	33.4	33.4	94	31.9	0	2	338	0.00	29.905 
02:10	33.4	33.4	33.4	94	31.9	0	3	338	0.00	29.903 
02:15	33.4	33.4	33.4	94	31.9	0	2	135	0.00	29.905 
02:20	33.4	33.4	33.4	94	31.9	0	4	135	0.00	29.906 
02:25	33.4	33.4	33.4	94	31.9	1	3	68	0.00	29.903 
02:30	33.4	33.4	33.4	95	32.1	1	3	68	0.00	29.904 
02:35	33.5	33.5	33.5	95	32.2	1	3	135	0.00	29.903 
02:40	33.5	33.5	33.5	95	32.2	1	3	68	0.00	29.901 
02:45	33.5	33.5	33.5	95	32.2	0	2	22	0.00	29.900 
02:50	33.5	33.5	33.5	95	32.2	1	4	112	0.00	29.899 
02:55	33.7	33.7	33.7	95	32.4	0	2	112	0.00	29.900 
03:00	33.7	33.7	33.7	95	32.4	0	1	112	0.00	29.900 
03:05	33.8	33.8	33.8	95	32.5	1	4	248	0.00	29.901 
03:10	33.8	33.8	33.8	95	32.5	0	3	90	0.00	29.899 
03:15	33.8	33.8	33.8	95	32.5	1	3	90	0.00	29.905 
03:20	33.8	33.8	33.8	95	32.5	0	2	270	0.00	29.898 
03:25	34.0	34.0	34.0	95	32.7	1	4	270	0.00	29.897 
03:30	34.0	34.0	34.0	95	32.7	0	2	292	0.00	29.888 
03:35	34.0	34.0	34.0	95	32.7	1	5	112	0.00	29.888 
03:40	34.0	34.0	34.0	95	32.7	1	2	112	0.00	29.884 
03:45	34.0	34.0	34.0	95	32.7	1	4	135	0.00	29.873 
03:50	34.1	34.1	34.1	95	32.8	1	3	68	0.00	29.878 
03:55	34.1	34.1	34.1	95	32.8	1	4	112	0.00	29.881 
04:00	34.3	34.3	34.3	95	33.0	1	3	270	0.00	29.883 
04:05	34.4	34.4	34.4	95	33.1	1	3	112	0.00	29.879 
04:10	34.4	34.4	34.4	95	33.1	0	2	135	0.00	29.876 
04:15	34.4	34.4	34.4	96	33.4	1	4	68	0.00	29.865 
04:20	34.4	34.4	34.4	95	33.1	1	4	112	0.00	29.860 
04:25	34.6	34.6	34.6	96	33.6	1	2	112	0.00	29.854 
04:30	34.6	34.6	34.6	96	33.6	1	3	45	0.00	29.851 
04:35	34.7	34.7	34.7	96	33.7	1	3	90	0.00	29.849 
04:40	34.7	34.7	34.7	96	33.7	1	4	90	0.00	29.850 
04:45	34.7	34.7	34.7	96	33.7	1	3	90	0.00	29.855 
04:50	34.7	34.7	34.7	96	33.7	0	2	112	0.00	29.851 
04:55	34.7	34.7	34.7	96	33.7	1	3	112	0.00	29.848 
05:00	34.9	34.9	34.9	96	33.9	1	3	112	0.01	29.849 
05:05	34.9	34.9	34.9	96	33.9	0	1	248	0.00	29.849 
05:10	34.9	34.9	34.9	96	33.9	1	3	270	0.00	29.843 
05:15	34.9	34.9	34.9	96	33.9	0	2	112	0.00	29.846 
05:20	34.9	34.9	34.9	96	33.9	0	2	112	0.00	29.847 
05:25	34.9	34.9	34.9	96	33.9	0	2	112	0.00	29.839 
05:30	34.9	34.9	34.9	96	33.9	0	2	112	0.00	29.842 
05:35	34.7	34.7	34.7	96	33.7	0	2	112	0.00	29.834 
05:40	34.7	34.7	34.7	96	33.7	1	2	90	0.00	29.840 
05:45	34.7	34.7	34.7	96	33.7	0	1	90	0.01	29.835 
05:50	34.7	34.7	34.7	96	33.7	1	3	90	0.00	29.837 
05:55	34.9	34.9	34.9	96	33.9	0	2	90	0.00	29.835 
06:00	34.9	34.9	34.9	96	33.9	1	2	112	0.00	29.830 
06:05	34.9	34.9	34.9	96	33.9	0	2	135	0.00	29.831 
06:10	34.9	34.9	34.9	96	33.9	0	2	112	0.01	29.833 
06:15	34.9	34.9	34.9	96	33.9	0	2	112	0.00	29.829 
06:20	34.9	34.9	34.9	96	33.9	0	2	112	0.00	29.824 
06:25	34.9	34.9	34.9	96	33.9	0	2	112	0.00	29.824 
06:30	34.9	34.9	34.9	96	33.9	0	1	112	0.01	29.822 
06:35	34.9	34.9	34.9	96	33.9	0	3	112	0.00	29.817 
06:40	35.0	35.0	35.0	96	34.0	1	4	112	0.00	29.816 
06:45	35.0	35.0	35.0	96	34.0	1	2	112	0.01	29.815 
06:50	35.2	35.2	35.2	96	34.2	1	3	112	0.00	29.814 
06:55	35.2	35.2	35.2	96	34.2	0	2	112	0.01	29.813 
07:00	35.2	35.2	35.2	96	34.2	0	2	112	0.00	29.810 
07:05	35.3	35.3	35.3	96	34.3	1	3	112	0.00	29.801 
07:10	35.3	35.3	35.3	96	34.3	1	3	135	0.00	29.795 
07:15	35.5	35.5	35.5	96	34.5	1	2	135	0.01	29.790 
07:20	35.5	35.5	35.5	96	34.5	1	2	135	0.00	29.786 
07:25	35.6	35.6	35.6	96	34.6	1	2	135	0.00	29.786 
07:30	35.6	35.6	35.6	96	34.6	1	2	112	0.01	29.790 
07:35	35.8	35.8	35.8	96	34.8	1	3	112	0.00	29.785 
07:40	35.9	35.9	35.9	96	34.9	1	3	112	0.01	29.790 
07:45	36.0	36.0	36.0	96	35.0	0	3	112	0.00	29.794 
07:50	36.0	36.0	36.0	96	35.0	0	1	135	0.01	29.795 
07:55	36.2	36.2	36.2	96	35.2	1	3	135	0.00	29.792 
08:00	36.3	36.3	36.3	96	35.3	0	2	135	0.01	29.784 
08:05	36.5	36.5	36.5	96	35.5	1	2	135	0.00	29.781 
08:10	36.6	36.6	36.6	96	35.6	1	2	135	0.01	29.772 
08:15	36.6	36.6	36.6	96	35.6	1	2	112	0.01	29.766 
08:20	36.6	36.6	36.6	96	35.6	1	3	135	0.00	29.766 
08:25	36.8	36.8	36.8	96	35.8	1	2	112	0.01	29.770 
08:30	36.9	36.9	36.9	96	35.9	0	1	112	0.01	29.767 
08:35	37.0	37.0	37.0	97	36.2	0	2	112	0.01	29.763 
08:40	37.0	37.0	37.0	96	36.0	0	2	112	0.01	29.764 
08:45	37.0	37.0	37.0	96	36.0	0	2	112	0.01	29.759 
08:50	37.3	37.3	37.3	97	36.5	0	2	112	0.01	29.759 
08:55	37.5	37.5	37.5	97	36.7	0	2	112	0.01	29.751 
09:00	37.8	37.8	37.8	97	37.0	1	3	112	0.01	29.745 
09:05	38.0	38.0	38.0	97	37.2	1	3	112	0.02	29.744 
09:10	38.3	38.3	38.3	97	37.5	1	3	112	0.01	29.736 
09:15	38.6	38.6	38.6	97	37.8	1	3	112	0.01	29.731 
09:20	38.9	38.9	38.9	97	38.1	1	3	112	0.02	29.730 
09:25	39.1	39.1	39.1	97	38.3	1	3	135	0.01	29.725 
09:30	39.3	39.3	39.3	97	38.5	1	2	135	0.02	29.717 
09:35	39.5	39.5	39.5	97	38.7	0	3	135	0.02	29.714 
09:40	39.6	39.6	39.6	97	38.8	1	2	135	0.01	29.713 
09:45	39.9	39.9	39.9	97	39.1	1	3	135	0.02	29.710 
09:50	40.2	40.2	40.2	97	39.4	1	3	90	0.02	29.706 
09:55	40.6	40.6	40.6	97	39.8	1	4	112	0.02	29.697 
10:00	40.6	40.6	40.6	97	39.8	1	3	112	0.02	29.705 
10:05	40.6	40.6	40.6	97	39.8	1	2	112	0.02	29.701 
10:10	40.5	40.5	40.5	97	39.7	0	2	112	0.02	29.697 
10:15	40.6	40.6	40.6	97	39.8	0	2	112	0.03	29.694 
10:20	40.9	40.9	40.9	97	40.1	1	4	112	0.02	29.684 
10:25	41.3	41.3	41.3	97	40.5	1	4	90	0.02	29.681 
10:30	41.5	41.5	41.5	97	40.7	1	4	90	0.02	29.675 
10:35	41.8	41.8	41.8	97	41.0	2	7	90	0.02	29.666 
10:40	42.1	42.1	42.1	97	41.3	2	9	90	0.02	29.666 
10:45	42.3	42.3	42.3	97	41.5	2	6	90	0.02	29.653 
10:50	42.6	42.6	42.6	97	41.8	2	11	90	0.03	29.645 
10:55	42.6	42.6	42.6	97	41.8	1	5	45	0.02	29.647 
11:00	42.6	42.6	42.6	97	41.8	2	5	90	0.01	29.643 
11:05	42.6	42.6	42.6	97	41.8	2	4	68	0.02	29.645 
11:10	43.1	43.1	43.1	97	42.3	2	6	248	0.02	29.654 
11:15	43.3	43.3	43.3	97	42.5	2	9	135	0.01	29.647 
11:20	43.3	43.3	43.3	97	42.5	2	7	68	0.02	29.642 
11:25	43.2	43.2	43.2	97	42.4	1	4	248	0.01	29.633 
11:30	43.2	43.2	43.2	97	42.4	1	5	248	0.02	29.638 
11:35	43.3	43.3	43.3	97	42.5	1	3	270	0.01	29.645 
11:40	43.6	43.6	43.6	97	42.8	2	6	270	0.01	29.636 
11:45	43.6	43.6	43.6	97	42.8	2	4	248	0.02	29.640 
11:50	43.6	43.6	43.6	97	42.8	2	6	248	0.02	29.632 
11:55	43.6	43.6	43.6	97	42.8	1	7	248	0.01	29.626 
12:00	43.8	43.8	43.8	97	43.0	2	5	248	0.02	29.630 
12:05	43.6	43.6	43.6	97	42.8	1	3	248	0.02	29.632 
12:10	43.8	43.8	43.8	97	43.0	2	7	248	0.01	29.618 
12:15	43.8	43.8	43.8	97	43.0	1	4	248	0.02	29.614 
12:20	43.9	43.9	43.9	97	43.1	2	5	248	0.02	29.622 
12:25	44.2	44.2	44.2	97	43.4	3	6	248	0.01	29.631 
12:30	44.1	44.1	44.1	97	43.3	2	7	248	0.02	29.623 
12:35	44.2	44.2	44.2	97	43.4	3	7	248	0.02	29.628 
12:40	44.2	44.2	44.2	97	43.4	3	6	248	0.03	29.632 
12:45	44.2	42.2	44.2	97	43.4	4	14	248	0.02	29.634 
12:50	44.3	41.5	44.3	97	43.5	5	11	270	0.03	29.631 
12:55	44.1	41.3	44.1	97	43.3	5	13	270	0.03	29.629 
13:00	43.8	40.9	43.8	97	43.0	5	12	270	0.04	29.637 
13:05	43.3	41.1	43.3	97	42.5	4	11	270	0.03	29.632 
13:10	43.1	40.9	43.1	97	42.3	4	9	248	0.02	29.624 
13:15	42.9	42.9	42.9	97	42.1	3	9	248	0.02	29.623 
13:20	42.9	39.9	42.9	97	42.1	5	11	248	0.02	29.625 
13:25	42.8	40.6	42.8	97	42.0	4	10	248	0.03	29.621 
13:30	42.8	40.6	42.8	97	42.0	4	11	248	0.01	29.615 
13:35	42.8	39.8	42.8	97	42.0	5	12	270	0.02	29.610 
13:40	42.8	40.6	42.8	97	42.0	4	13	270	0.01	29.615 
13:45	42.6	42.6	42.6	97	41.8	3	13	270	0.02	29.617 
13:50	42.6	40.3	42.6	97	41.8	4	10	270	0.01	29.619 
13:55	42.5	42.5	42.5	97	41.7	3	10	270	0.01	29.626 
14:00	42.3	40.0	42.3	96	41.2	4	11	248	0.02	29.630 
14:05	42.3	40.0	42.3	96	41.2	4	13	270	0.01	29.632 
14:10	42.3	42.3	42.3	96	41.2	3	7	248	0.01	29.635 
14:15	42.3	40.0	42.3	96	41.2	4	9	248	0.00	29.634 
14:20	42.3	40.0	42.3	96	41.2	4	9	270	0.02	29.639 
14:25	42.5	39.4	42.5	96	41.4	5	12	270	0.01	29.637 
14:30	42.5	40.2	42.5	96	41.4	4	12	248	0.01	29.642 
14:35	42.5	39.4	42.5	95	41.2	5	11	248	0.01	29.637 
14:40	42.5	39.4	42.5	95	41.2	5	11	248	0.01	29.634 
14:45	42.3	38.5	42.3	94	40.7	6	16	270	0.01	29.636 
14:50	42.3	38.5	42.3	94	40.7	6	17	270	0.01	29.647 
14:55	42.2	37.8	42.2	93	40.3	7	19	270	0.01	29.650 
15:00	41.9	38.0	41.9	93	40.0	6	16	270	0.01	29.648 
15:05	41.6	38.4	41.6	93	39.7	5	11	270	0.00	29.649 
15:10	41.3	38.8	41.3	93	39.4	4	13	270	0.01	29.661 
15:15	41.1	37.8	41.1	93	39.2	5	12	270	0.01	29.663 
15:20	40.3	35.0	40.3	92	38.2	8	17	270	0.01	29.678 
15:25	39.9	35.6	39.9	92	37.8	6	13	270	0.00	29.677 
15:30	39.6	34.1	39.6	90	36.9	8	18	270	0.01	29.682 
15:35	39.3	34.3	39.3	89	36.3	7	16	270	0.01	29.697 
15:40	39.1	33.0	39.1	87	35.6	9	18	270	0.00	29.701 
15:45	38.6	33.5	38.6	86	34.8	7	19	270	0.01	29.718 
15:50	38.3	32.5	38.3	86	34.5	8	21	270	0.00	29.723 
15:55	37.8	31.4	37.8	85	33.7	9	23	270	0.01	29.732 
16:00	37.5	31.0	37.5	85	33.4	9	24	270	0.00	29.739 
16:05	37.0	33.9	37.0	85	32.9	4	12	270	0.01	29.747 
16:10	36.9	32.8	36.9	85	32.8	5	14	270	0.00	29.755 
16:15	36.8	31.9	36.8	84	32.4	6	17	270	0.00	29.760 
16:20	36.6	31.0	36.6	82	31.6	7	18	270	0.01	29.763 
16:25	36.3	29.5	36.3	81	31.0	9	22	270	0.00	29.777 
16:30	36.2	31.2	36.2	81	30.9	6	21	270	0.00	29.778 
16:35	36.0	30.3	36.0	81	30.7	7	14	270	0.00	29.782 
16:40	35.9	31.7	35.9	81	30.6	5	13	270	0.00	29.786 
16:45	35.8	30.8	35.8	81	30.6	6	19	270	0.00	29.787 
16:50	35.8	31.5	35.8	81	30.6	5	12	270	0.00	29.790 
16:55	35.8	30.1	35.8	81	30.6	7	16	270	0.01	29.796 
17:00	35.6	30.5	35.6	81	30.4	6	13	270	0.00	29.796 
17:05	35.3	30.2	35.3	81	30.1	6	17	270	0.00	29.802 
17:10	35.2	28.7	35.2	80	29.7	8	16	270	0.00	29.800 
17:15	35.0	29.8	35.0	80	29.5	6	19	270	0.00	29.811 
17:20	34.9	30.5	34.9	80	29.4	5	13	270	0.00	29.818 
17:25	34.7	28.8	34.7	79	28.9	7	18	270	0.00	29.827 
17:30	34.6	29.3	34.6	80	29.1	6	15	270	0.00	29.828 
17:35	34.1	28.0	34.1	79	28.3	7	16	270	0.00	29.838 
17:40	33.4	27.2	33.4	77	27.0	7	20	270	0.00	29.845 
17:45	32.9	25.9	32.9	76	26.2	8	17	270	0.00	29.858 
17:50	32.7	26.3	32.7	77	26.3	7	15	270	0.00	29.860 
17:55	32.5	26.1	32.5	77	26.1	7	15	270	0.00	29.860 
18:00	32.4	27.5	32.4	77	26.0	5	16	270	0.00	29.864 
18:05	32.2	27.3	32.2	78	26.1	5	17	270	0.00	29.866 
18:10	32.1	25.0	32.1	77	25.7	8	19	270	0.00	29.877 
18:15	31.9	26.1	31.9	77	25.5	6	15	270	0.00	29.892 
18:20	31.3	24.0	31.3	77	24.9	8	19	270	0.00	29.891 
18:25	30.7	22.7	30.7	76	24.0	9	19	270	0.00	29.897 
18:30	30.3	22.2	30.3	76	23.7	9	19	270	0.00	29.912 
18:35	29.8	23.6	29.8	76	23.2	6	14	270	0.00	29.914 
18:40	29.7	23.5	29.7	76	23.1	6	16	270	0.00	29.922 
18:45	29.5	22.5	29.5	77	23.2	7	15	270	0.00	29.927 
18:50	29.4	23.1	29.4	78	23.4	6	13	270	0.00	29.929 
18:55	29.1	23.7	29.1	77	22.8	5	15	270	0.00	29.940 
19:00	28.8	22.4	28.8	77	22.5	6	18	270	0.00	29.943 
19:05	28.4	21.9	28.4	76	21.8	6	17	270	0.00	29.945 
19:10	28.2	22.6	28.2	77	21.9	5	12	270	0.00	29.953 
19:15	28.1	23.6	28.1	77	21.8	4	11	270	0.00	29.949 
19:20	27.9	21.3	27.9	77	21.6	6	15	270	0.00	29.957 
19:25	27.5	20.9	27.5	76	20.9	6	14	248	0.00	29.964 
19:30	27.0	20.3	27.0	75	20.2	6	14	270	0.00	29.976 
19:35	26.7	19.9	26.7	74	19.5	6	16	270	0.00	29.980 
19:40	26.4	19.6	26.4	74	19.3	6	14	270	0.00	29.989 
19:45	26.3	20.4	26.3	75	19.5	5	15	270	0.00	29.990 
19:50	26.1	20.1	26.1	75	19.3	5	12	270	0.00	29.995 
19:55	26.0	20.0	26.0	75	19.2	5	13	248	0.00	29.995 
20:00	25.8	18.8	25.8	75	19.0	6	14	270	0.00	29.998 
20:05	25.6	19.6	25.6	74	18.5	5	13	270	0.00	30.001 
20:10	25.4	18.4	25.4	74	18.3	6	14	270	0.00	30.009 
20:15	25.3	19.2	25.3	74	18.2	5	12	270	0.00	30.023 
20:20	25.1	25.1	25.1	74	18.0	3	7	270	0.00	30.025 
20:25	25.0	18.9	25.0	74	17.9	5	12	270	0.00	30.029 
20:30	24.7	17.5	24.7	73	17.3	6	16	270	0.00	30.038 
20:35	24.2	16.9	24.2	71	16.2	6	15	270	0.00	30.040 
20:40	23.9	17.6	23.9	71	15.9	5	9	270	0.00	30.042 
20:45	23.5	17.1	23.5	71	15.5	5	10	270	0.00	30.043 
20:50	23.3	15.9	23.3	72	15.6	6	15	270	0.00	30.056 
20:55	23.2	16.7	23.2	72	15.5	5	17	270	0.00	30.059 
21:00	22.9	14.5	22.9	71	14.9	7	13	270	0.00	30.070 
21:05	22.7	16.2	22.7	71	14.7	5	12	270	0.00	30.068 
21:10	22.7	16.2	22.7	71	14.7	5	12	270	0.00	30.070 
21:15	22.5	14.9	22.5	71	14.5	6	17	270	0.00	30.074 
21:20	22.4	15.8	22.4	70	14.1	5	12	270	0.00	30.081 
21:25	22.2	15.6	22.2	71	14.3	5	12	270	0.00	30.087 
21:30	22.1	15.4	22.1	71	14.2	5	17	270	0.00	30.087 
21:35	21.9	15.2	21.9	71	14.0	5	12	270	0.00	30.091 
21:40	21.9	16.4	21.9	71	14.0	4	10	270	0.00	30.098 
21:45	21.8	14.1	21.8	71	13.9	6	17	270	0.00	30.103 
21:50	21.3	13.5	21.3	71	13.4	6	14	270	0.00	30.104 
21:55	21.0	13.1	21.0	71	13.1	6	13	270	0.00	30.111 
22:00	20.8	13.9	20.8	71	12.9	5	12	270	0.00	30.115 
22:05	20.5	13.6	20.5	72	12.9	5	11	270	0.00	30.117 
22:10	20.5	13.6	20.5	72	12.9	5	14	270	0.00	30.119 
22:15	20.3	13.3	20.3	72	12.7	5	18	270	0.00	30.121 
22:20	20.2	12.2	20.2	72	12.6	6	18	270	0.00	30.128 
22:25	20.0	13.0	20.0	72	12.5	5	13	270	0.00	30.135 
22:30	20.0	14.2	20.0	73	12.8	4	11	270	0.00	30.135 
22:35	19.9	14.1	19.9	73	12.7	4	7	270	0.00	30.139 
22:40	19.9	14.1	19.9	73	12.7	4	11	270	0.00	30.148 
22:45	19.7	13.9	19.7	73	12.5	4	12	270	0.00	30.151 
22:50	19.5	12.4	19.5	73	12.3	5	12	248	0.00	30.154 
22:55	19.4	13.5	19.4	73	12.2	4	11	270	0.00	30.153 
23:00	19.4	19.4	19.4	74	12.5	3	10	270	0.00	30.159 
23:05	19.4	19.4	19.4	74	12.5	3	9	270	0.00	30.163 
23:10	19.2	19.2	19.2	74	12.3	3	11	248	0.00	30.167 
23:15	19.1	11.9	19.1	74	12.2	5	9	270	0.00	30.181 
23:20	18.9	12.9	18.9	74	12.0	4	11	270	0.00	30.176 
23:25	18.9	18.9	18.9	74	12.0	3	11	270	0.00	30.182 
23:30	18.8	18.8	18.8	75	12.2	3	6	270	0.00	30.182 
23:35	18.6	18.6	18.6	74	11.7	3	7	270	0.00	30.182 
23:40	18.4	12.4	18.4	73	11.2	4	9	270	0.00	30.186 
23:45	18.1	18.1	18.1	73	10.9	3	8	270	0.00	30.187 
23:50	18.1	18.1	18.1	74	11.2	3	7	270	0.00	30.188 
23:55	18.0	18.0	18.0	74	11.1	3	10	270	0.00	30.192 

CoCoRaHS
IN-AL-39
A2 Web Hosting
Creative Commons License
GoDaddy
search engine by freefind advanced

loaded 2018-11-15 15:39:16 • last modified 2010-11-18 10:43:29
Privacy PolicyDisclaimer
• wx.awcolley.com is powered by PmWiki v.2002016 •
• all content (unless otherwise noted) © 2018 A W Colley